sensor_id;sensor_type;location;lat;lon;timestamp;pressure;altitude;pressure_sealevel;temperature;humidity
23616;BME280;11985;49.404;7.734;2023-11-21T00:01:58;96604.25;;;6.90;100.00
23616;BME280;11985;49.404;7.734;2023-11-21T00:06:59;96609.88;;;6.93;100.00
23616;BME280;11985;49.404;7.734;2023-11-21T00:12:01;96598.00;;;6.91;100.00
23616;BME280;11985;49.404;7.734;2023-11-21T00:17:04;96602.44;;;6.90;100.00
23616;BME280;11985;49.404;7.734;2023-11-21T00:22:06;96597.19;;;6.97;100.00
23616;BME280;11985;49.404;7.734;2023-11-21T00:27:08;96593.56;;;6.98;100.00
23616;BME280;11985;49.404;7.734;2023-11-21T00:32:10;96593.56;;;6.98;100.00
23616;BME280;11985;49.404;7.734;2023-11-21T00:37:12;96599.59;;;6.92;100.00
23616;BME280;11985;49.404;7.734;2023-11-21T00:42:14;96597.00;;;6.92;100.00
23616;BME280;11985;49.404;7.734;2023-11-21T00:47:16;96588.75;;;6.95;100.00
23616;BME280;11985;49.404;7.734;2023-11-21T00:52:18;96591.75;;;6.92;100.00
23616;BME280;11985;49.404;7.734;2023-11-21T00:57:20;96599.22;;;6.95;100.00
23616;BME280;11985;49.404;7.734;2023-11-21T01:02:22;96597.59;;;6.94;100.00
23616;BME280;11985;49.404;7.734;2023-11-21T01:07:25;96597.19;;;6.97;100.00
23616;BME280;11985;49.404;7.734;2023-11-21T01:12:27;96609.28;;;6.98;100.00
23616;BME280;11985;49.404;7.734;2023-11-21T01:17:30;96604.47;;;6.95;100.00
23616;BME280;11985;49.404;7.734;2023-11-21T01:22:32;96612.91;;;6.97;100.00
23616;BME280;11985;49.404;7.734;2023-11-21T01:27:33;96600.84;;;6.96;100.00
23616;BME280;11985;49.404;7.734;2023-11-21T01:32:36;96608.28;;;6.99;100.00
23616;BME280;11985;49.404;7.734;2023-11-21T01:37:38;96611.31;;;6.96;100.00
23616;BME280;11985;49.404;7.734;2023-11-21T01:42:40;96610.28;;;6.97;100.00
23616;BME280;11985;49.404;7.734;2023-11-21T01:47:44;96611.09;;;6.97;100.00
23616;BME280;11985;49.404;7.734;2023-11-21T01:52:46;96611.69;;;6.99;100.00
23616;BME280;11985;49.404;7.734;2023-11-21T01:57:49;96620.16;;;6.95;100.00
23616;BME280;11985;49.404;7.734;2023-11-21T02:02:52;96623.38;;;6.97;100.00
23616;BME280;11985;49.404;7.734;2023-11-21T02:07:54;96615.53;;;6.97;100.00
23616;BME280;11985;49.404;7.734;2023-11-21T02:12:56;96622.56;;;6.96;100.00
23616;BME280;11985;49.404;7.734;2023-11-21T02:18:00;96613.28;;;6.94;100.00
23616;BME280;11985;49.404;7.734;2023-11-21T02:23:04;96619.16;;;6.96;100.00
23616;BME280;11985;49.404;7.734;2023-11-21T02:28:06;96626.22;;;6.95;100.00
23616;BME280;11985;49.404;7.734;2023-11-21T02:33:08;96626.00;;;6.97;100.00
23616;BME280;11985;49.404;7.734;2023-11-21T02:38:11;96620.16;;;6.95;100.00
23616;BME280;11985;49.404;7.734;2023-11-21T02:43:12;96620.97;;;6.95;100.00
23616;BME280;11985;49.404;7.734;2023-11-21T02:48:14;96628.63;;;6.97;100.00
23616;BME280;11985;49.404;7.734;2023-11-21T02:53:17;96627.00;;;7.02;100.00
23616;BME280;11985;49.404;7.734;2023-11-21T02:58:18;96626.59;;;6.99;100.00
23616;BME280;11985;49.404;7.734;2023-11-21T03:03:20;96630.44;;;7.03;100.00
23616;BME280;11985;49.404;7.734;2023-11-21T03:08:25;96631.66;;;7.00;100.00
23616;BME280;11985;49.404;7.734;2023-11-21T03:13:27;96626.41;;;7.00;100.00
23616;BME280;11985;49.404;7.734;2023-11-21T03:18:28;96629.84;;;7.01;100.00
23616;BME280;11985;49.404;7.734;2023-11-21T03:23:31;96631.88;;;7.05;100.00
23616;BME280;11985;49.404;7.734;2023-11-21T03:28:33;96634.66;;;7.04;100.00
23616;BME280;11985;49.404;7.734;2023-11-21T03:33:35;96639.53;;;7.07;100.00
23616;BME280;11985;49.404;7.734;2023-11-21T03:38:38;96646.56;;;7.06;100.00
23616;BME280;11985;49.404;7.734;2023-11-21T03:43:40;96641.50;;;7.05;100.00
23616;BME280;11985;49.404;7.734;2023-11-21T03:48:41;96641.50;;;7.05;100.00
23616;BME280;11985;49.404;7.734;2023-11-21T03:53:44;96646.75;;;7.05;100.00
23616;BME280;11985;49.404;7.734;2023-11-21T03:58:46;96648.38;;;7.06;100.00
23616;BME280;11985;49.404;7.734;2023-11-21T04:03:48;96658.84;;;7.06;100.00
23616;BME280;11985;49.404;7.734;2023-11-21T04:08:51;96660.84;;;7.04;100.00
23616;BME280;11985;49.404;7.734;2023-11-21T04:13:52;96659.66;;;7.00;100.00
23616;BME280;11985;49.404;7.734;2023-11-21T04:18:54;96666.09;;;7.04;100.00
23616;BME280;11985;49.404;7.734;2023-11-21T04:23:57;96670.31;;;7.05;100.00
23616;BME280;11985;49.404;7.734;2023-11-21T04:28:59;96674.56;;;7.06;100.00
23616;BME280;11985;49.404;7.734;2023-11-21T04:34:00;96674.16;;;7.09;100.00
23616;BME280;11985;49.404;7.734;2023-11-21T04:39:05;96687.66;;;7.12;100.00
23616;BME280;11985;49.404;7.734;2023-11-21T04:44:07;96690.28;;;7.12;100.00
23616;BME280;11985;49.404;7.734;2023-11-21T04:49:09;96705.78;;;7.14;100.00
23616;BME280;11985;49.404;7.734;2023-11-21T04:54:12;96700.19;;;7.17;100.00
23616;BME280;11985;49.404;7.734;2023-11-21T04:59:14;96708.84;;;7.31;100.00
23616;BME280;11985;49.404;7.734;2023-11-21T05:04:15;96715.75;;;7.38;100.00
23616;BME280;11985;49.404;7.734;2023-11-21T05:09:18;96730.69;;;7.51;100.00
23616;BME280;11985;49.404;7.734;2023-11-21T05:14:20;96729.66;;;7.59;100.00
23616;BME280;11985;49.404;7.734;2023-11-21T05:19:21;96734.31;;;7.50;100.00
23616;BME280;11985;49.404;7.734;2023-11-21T05:24:24;96744.16;;;7.55;100.00
23616;BME280;11985;49.404;7.734;2023-11-21T05:29:26;96745.19;;;7.54;100.00
23616;BME280;11985;49.404;7.734;2023-11-21T05:34:27;96755.28;;;7.50;100.00
23616;BME280;11985;49.404;7.734;2023-11-21T05:39:30;96754.06;;;7.53;100.00
23616;BME280;11985;49.404;7.734;2023-11-21T05:44:32;96768.19;;;7.65;100.00
23616;BME280;11985;49.404;7.734;2023-11-21T05:49:35;96771.22;;;7.55;100.00
23616;BME280;11985;49.404;7.734;2023-11-21T05:54:38;96774.63;;;7.56;100.00
23616;BME280;11985;49.404;7.734;2023-11-21T05:59:40;96781.88;;;7.54;100.00
23616;BME280;11985;49.404;7.734;2023-11-21T06:04:42;96781.84;;;7.40;100.00
23616;BME280;11985;49.404;7.734;2023-11-21T06:09:45;96803.94;;;7.25;100.00
23616;BME280;11985;49.404;7.734;2023-11-21T06:14:46;96794.69;;;7.29;100.00
23616;BME280;11985;49.404;7.734;2023-11-21T06:19:48;96796.78;;;7.47;100.00
23616;BME280;11985;49.404;7.734;2023-11-21T06:24:51;96813.97;;;7.62;100.00
23616;BME280;11985;49.404;7.734;2023-11-21T06:29:53;96812.91;;;7.50;100.00
23616;BME280;11985;49.404;7.734;2023-11-21T06:34:54;96814.88;;;7.41;100.00
23616;BME280;11985;49.404;7.734;2023-11-21T06:39:58;96828.00;;;7.41;100.00
23616;BME280;11985;49.404;7.734;2023-11-21T06:45:00;96823.34;;;7.44;100.00
23616;BME280;11985;49.404;7.734;2023-11-21T06:50:04;96837.69;;;7.48;100.00
23616;BME280;11985;49.404;7.734;2023-11-21T06:55:09;96848.56;;;7.45;100.00
23616;BME280;11985;49.404;7.734;2023-11-21T07:00:11;96859.22;;;7.36;100.00
23616;BME280;11985;49.404;7.734;2023-11-21T07:05:13;96862.88;;;7.49;100.00
23616;BME280;11985;49.404;7.734;2023-11-21T07:10:17;96873.59;;;7.60;100.00
23616;BME280;11985;49.404;7.734;2023-11-21T07:15:20;96884.50;;;7.64;100.00
23616;BME280;11985;49.404;7.734;2023-11-21T07:20:21;96888.13;;;7.56;100.00
23616;BME280;11985;49.404;7.734;2023-11-21T07:25:25;96891.31;;;7.45;100.00
23616;BME280;11985;49.404;7.734;2023-11-21T07:30:26;96896.84;;;7.22;100.00
23616;BME280;11985;49.404;7.734;2023-11-21T07:35:28;96902.22;;;7.14;100.00
23616;BME280;11985;49.404;7.734;2023-11-21T07:40:31;96890.97;;;7.20;100.00
23616;BME280;11985;49.404;7.734;2023-11-21T07:45:33;96904.59;;;7.09;100.00
23616;BME280;11985;49.404;7.734;2023-11-21T07:50:34;96922.31;;;7.07;100.00
23616;BME280;11985;49.404;7.734;2023-11-21T07:55:37;96932.47;;;7.17;100.00
23616;BME280;11985;49.404;7.734;2023-11-21T08:00:39;96942.81;;;7.31;100.00
23616;BME280;11985;49.404;7.734;2023-11-21T08:05:40;96950.28;;;7.34;100.00
23616;BME280;11985;49.404;7.734;2023-11-21T08:10:43;96959.06;;;7.20;100.00
23616;BME280;11985;49.404;7.734;2023-11-21T08:15:46;96960.59;;;7.08;100.00
23616;BME280;11985;49.404;7.734;2023-11-21T08:20:48;96969.88;;;7.10;100.00
23616;BME280;11985;49.404;7.734;2023-11-21T08:25:51;96970.63;;;7.04;100.00
23616;BME280;11985;49.404;7.734;2023-11-21T08:30:53;96973.31;;;7.11;100.00
23616;BME280;11985;49.404;7.734;2023-11-21T08:35:55;96974.28;;;7.10;100.00
23616;BME280;11985;49.404;7.734;2023-11-21T08:40:58;96981.09;;;7.04;100.00
23616;BME280;11985;49.404;7.734;2023-11-21T08:46:02;96984.78;;;7.10;100.00
23616;BME280;11985;49.404;7.734;2023-11-21T08:51:04;96979.41;;;7.18;100.00
23616;BME280;11985;49.404;7.734;2023-11-21T08:56:08;96989.69;;;7.20;100.00
23616;BME280;11985;49.404;7.734;2023-11-21T09:01:13;97005.56;;;7.39;100.00
23616;BME280;11985;49.404;7.734;2023-11-21T09:06:15;97000.72;;;7.43;100.00
23616;BME280;11985;49.404;7.734;2023-11-21T09:11:18;96997.50;;;7.41;100.00
23616;BME280;11985;49.404;7.734;2023-11-21T09:16:19;97007.91;;;7.28;100.00
23616;BME280;11985;49.404;7.734;2023-11-21T09:21:21;97019.59;;;7.32;100.00
23616;BME280;11985;49.404;7.734;2023-11-21T09:26:25;97029.31;;;7.38;100.00
23616;BME280;11985;49.404;7.734;2023-11-21T09:31:26;97038.22;;;7.44;100.00
23616;BME280;11985;49.404;7.734;2023-11-21T09:36:28;97034.63;;;7.45;100.00
23616;BME280;11985;49.404;7.734;2023-11-21T09:41:37;97043.00;;;7.33;100.00
23616;BME280;11985;49.404;7.734;2023-11-21T09:46:42;97044.66;;;7.41;100.00
23616;BME280;11985;49.404;7.734;2023-11-21T09:51:46;97054.00;;;7.50;100.00
23616;BME280;11985;49.404;7.734;2023-11-21T09:56:49;97057.00;;;7.47;100.00
23616;BME280;11985;49.404;7.734;2023-11-21T10:01:51;97061.06;;;7.50;100.00
23616;BME280;11985;49.404;7.734;2023-11-21T10:06:53;97063.88;;;7.55;100.00
23616;BME280;11985;49.404;7.734;2023-11-21T10:11:56;97077.94;;;7.75;100.00
23616;BME280;11985;49.404;7.734;2023-11-21T10:17:01;97087.28;;;7.84;100.00
23616;BME280;11985;49.404;7.734;2023-11-21T10:22:03;97094.81;;;7.66;100.00
23616;BME280;11985;49.404;7.734;2023-11-21T10:27:06;97086.88;;;7.53;100.00
23616;BME280;11985;49.404;7.734;2023-11-21T10:32:07;97094.78;;;7.59;100.00
23616;BME280;11985;49.404;7.734;2023-11-21T10:37:13;97092.72;;;7.55;100.00
23616;BME280;11985;49.404;7.734;2023-11-21T10:42:18;97099.53;;;7.49;100.00
23616;BME280;11985;49.404;7.734;2023-11-21T10:47:20;97096.34;;;7.54;100.00
23616;BME280;11985;49.404;7.734;2023-11-21T10:52:26;97099.19;;;7.59;100.00
23616;BME280;11985;49.404;7.734;2023-11-21T10:57:29;97111.69;;;7.57;100.00
23616;BME280;11985;49.404;7.734;2023-11-21T11:02:31;97109.06;;;7.57;100.00
23616;BME280;11985;49.404;7.734;2023-11-21T11:07:35;97113.31;;;7.58;100.00
23616;BME280;11985;49.404;7.734;2023-11-21T11:12:39;97109.81;;;7.72;100.00
23616;BME280;11985;49.404;7.734;2023-11-21T11:17:41;97113.97;;;7.94;100.00
23616;BME280;11985;49.404;7.734;2023-11-21T11:22:50;97120.53;;;8.12;100.00
23616;BME280;11985;49.404;7.734;2023-11-21T11:28:06;97114.59;;;7.97;100.00
23616;BME280;11985;49.404;7.734;2023-11-21T11:33:14;97109.50;;;7.88;100.00
23616;BME280;11985;49.404;7.734;2023-11-21T11:38:28;97109.88;;;7.85;100.00
23616;BME280;11985;49.404;7.734;2023-11-21T11:43:34;97101.47;;;7.97;100.00
23616;BME280;11985;49.404;7.734;2023-11-21T11:48:44;97113.03;;;8.09;100.00
23616;BME280;11985;49.404;7.734;2023-11-21T11:53:47;97113.72;;;8.17;100.00
23616;BME280;11985;49.404;7.734;2023-11-21T11:58:51;97112.91;;;8.17;100.00
23616;BME280;11985;49.404;7.734;2023-11-21T12:04:24;97119.31;;;8.14;100.00
23616;BME280;11985;49.404;7.734;2023-11-21T12:09:32;97121.31;;;8.06;100.00
23616;BME280;11985;49.404;7.734;2023-11-21T12:14:36;97126.94;;;8.03;100.00
23616;BME280;11985;49.404;7.734;2023-11-21T12:19:37;97119.28;;;8.08;100.00
23616;BME280;11985;49.404;7.734;2023-11-21T12:24:39;97126.38;;;8.14;100.00
23616;BME280;11985;49.404;7.734;2023-11-21T12:29:42;97127.63;;;8.18;100.00
23616;BME280;11985;49.404;7.734;2023-11-21T12:34:44;97129.84;;;8.21;100.00
23616;BME280;11985;49.404;7.734;2023-11-21T12:39:45;97131.63;;;8.49;100.00
23616;BME280;11985;49.404;7.734;2023-11-21T12:44:48;97145.50;;;8.84;100.00
23616;BME280;11985;49.404;7.734;2023-11-21T12:49:50;97140.50;;;9.02;100.00
23616;BME280;11985;49.404;7.734;2023-11-21T12:54:52;97146.78;;;9.08;100.00
23616;BME280;11985;49.404;7.734;2023-11-21T12:59:58;97156.03;;;8.97;100.00
23616;BME280;11985;49.404;7.734;2023-11-21T13:05:00;97146.69;;;8.81;100.00
23616;BME280;11985;49.404;7.734;2023-11-21T13:10:07;97145.09;;;8.80;100.00
23616;BME280;11985;49.404;7.734;2023-11-21T13:15:13;97154.56;;;8.81;100.00
23616;BME280;11985;49.404;7.734;2023-11-21T13:20:17;97155.22;;;8.83;100.00
23616;BME280;11985;49.404;7.734;2023-11-21T13:25:21;97156.59;;;8.79;100.00
23616;BME280;11985;49.404;7.734;2023-11-21T13:30:24;97163.59;;;8.65;100.00
23616;BME280;11985;49.404;7.734;2023-11-21T13:35:28;97173.47;;;8.57;100.00
23616;BME280;11985;49.404;7.734;2023-11-21T13:40:33;97186.19;;;8.60;100.00
23616;BME280;11985;49.404;7.734;2023-11-21T13:45:44;97198.78;;;8.71;100.00
23616;BME280;11985;49.404;7.734;2023-11-21T13:50:46;97198.00;;;8.77;100.00
23616;BME280;11985;49.404;7.734;2023-11-21T13:55:55;97196.47;;;9.03;100.00
23616;BME280;11985;49.404;7.734;2023-11-21T14:00:59;97210.72;;;9.28;100.00
23616;BME280;11985;49.404;7.734;2023-11-21T14:06:02;97209.91;;;9.41;100.00
23616;BME280;11985;49.404;7.734;2023-11-21T14:11:09;97213.13;;;9.36;100.00
23616;BME280;11985;49.404;7.734;2023-11-21T14:16:15;97212.28;;;9.16;100.00
23616;BME280;11985;49.404;7.734;2023-11-21T14:21:18;97214.66;;;9.04;100.00
23616;BME280;11985;49.404;7.734;2023-11-21T14:26:20;97212.22;;;8.96;100.00
23616;BME280;11985;49.404;7.734;2023-11-21T14:31:23;97215.41;;;8.85;100.00
23616;BME280;11985;49.404;7.734;2023-11-21T14:36:24;97225.47;;;8.81;100.00
23616;BME280;11985;49.404;7.734;2023-11-21T14:41:26;97231.75;;;8.80;100.00
23616;BME280;11985;49.404;7.734;2023-11-21T14:46:30;97233.13;;;8.76;100.00
23616;BME280;11985;49.404;7.734;2023-11-21T14:51:32;97239.16;;;8.70;100.00
23616;BME280;11985;49.404;7.734;2023-11-21T14:56:51;97236.72;;;8.62;100.00
23616;BME280;11985;49.404;7.734;2023-11-21T15:01:54;97239.47;;;8.54;100.00
23616;BME280;11985;49.404;7.734;2023-11-21T15:06:56;97258.38;;;8.42;100.00
23616;BME280;11985;49.404;7.734;2023-11-21T15:11:59;97263.63;;;8.42;100.00
23616;BME280;11985;49.404;7.734;2023-11-21T15:17:11;97260.41;;;8.40;100.00
23616;BME280;11985;49.404;7.734;2023-11-21T15:22:16;97274.03;;;8.29;100.00
23616;BME280;11985;49.404;7.734;2023-11-21T15:27:17;97280.44;;;8.27;100.00
23616;BME280;11985;49.404;7.734;2023-11-21T15:32:21;97280.66;;;8.25;100.00
23616;BME280;11985;49.404;7.734;2023-11-21T15:37:23;97289.31;;;8.26;100.00
23616;BME280;11985;49.404;7.734;2023-11-21T15:42:27;97292.16;;;8.24;100.00
23616;BME280;11985;49.404;7.734;2023-11-21T15:47:30;97291.91;;;8.19;100.00
23616;BME280;11985;49.404;7.734;2023-11-21T15:52:32;97298.53;;;8.15;100.00
23616;BME280;11985;49.404;7.734;2023-11-21T15:57:34;97304.53;;;8.09;100.00
23616;BME280;11985;49.404;7.734;2023-11-21T16:02:36;97310.47;;;7.96;100.00
23616;BME280;11985;49.404;7.734;2023-11-21T16:07:38;97318.78;;;7.78;100.00
23616;BME280;11985;49.404;7.734;2023-11-21T16:12:42;97323.13;;;7.71;100.00
23616;BME280;11985;49.404;7.734;2023-11-21T16:17:45;97330.50;;;7.82;100.00
23616;BME280;11985;49.404;7.734;2023-11-21T16:22:46;97345.06;;;7.85;100.00
23616;BME280;11985;49.404;7.734;2023-11-21T16:27:49;97354.25;;;7.96;100.00
23616;BME280;11985;49.404;7.734;2023-11-21T16:32:52;97356.19;;;8.08;100.00
23616;BME280;11985;49.404;7.734;2023-11-21T16:37:54;97359.34;;;8.04;100.00
23616;BME280;11985;49.404;7.734;2023-11-21T16:42:57;97359.09;;;7.99;100.00
23616;BME280;11985;49.404;7.734;2023-11-21T16:48:00;97369.28;;;7.87;100.00
23616;BME280;11985;49.404;7.734;2023-11-21T16:53:03;97378.97;;;7.72;100.00
23616;BME280;11985;49.404;7.734;2023-11-21T16:58:04;97387.16;;;7.62;100.00
23616;BME280;11985;49.404;7.734;2023-11-21T17:03:07;97382.13;;;7.46;100.00
23616;BME280;11985;49.404;7.734;2023-11-21T17:08:09;97385.28;;;7.41;100.00
23616;BME280;11985;49.404;7.734;2023-11-21T17:13:12;97392.97;;;7.43;100.00
23616;BME280;11985;49.404;7.734;2023-11-21T17:18:15;97394.06;;;7.33;100.00
23616;BME280;11985;49.404;7.734;2023-11-21T17:23:18;97404.91;;;7.30;100.00
23616;BME280;11985;49.404;7.734;2023-11-21T17:28:19;97405.91;;;7.44;100.00
23616;BME280;11985;49.404;7.734;2023-11-21T17:33:23;97423.31;;;7.52;100.00
23616;BME280;11985;49.404;7.734;2023-11-21T17:38:25;97426.84;;;7.59;100.00
23616;BME280;11985;49.404;7.734;2023-11-21T17:43:27;97430.81;;;7.55;100.00
23616;BME280;11985;49.404;7.734;2023-11-21T17:48:30;97437.06;;;7.54;100.00
23616;BME280;11985;49.404;7.734;2023-11-21T17:53:32;97441.66;;;7.52;100.00
23616;BME280;11985;49.404;7.734;2023-11-21T17:58:34;97451.69;;;7.48;100.00
23616;BME280;11985;49.404;7.734;2023-11-21T18:03:37;97453.22;;;7.43;100.00
23616;BME280;11985;49.404;7.734;2023-11-21T18:08:39;97459.38;;;7.35;100.00
23616;BME280;11985;49.404;7.734;2023-11-21T18:13:42;97459.91;;;7.30;100.00
23616;BME280;11985;49.404;7.734;2023-11-21T18:18:45;97465.69;;;7.26;100.00
23616;BME280;11985;49.404;7.734;2023-11-21T18:23:47;97469.31;;;7.25;100.00
23616;BME280;11985;49.404;7.734;2023-11-21T18:28:48;97476.53;;;7.37;100.00
23616;BME280;11985;49.404;7.734;2023-11-21T18:33:51;97487.59;;;7.62;100.00
23616;BME280;11985;49.404;7.734;2023-11-21T18:38:54;97482.31;;;7.77;100.00
23616;BME280;11985;49.404;7.734;2023-11-21T18:43:56;97493.63;;;7.78;100.00
23616;BME280;11985;49.404;7.734;2023-11-21T18:48:58;97501.22;;;7.73;100.00
23616;BME280;11985;49.404;7.734;2023-11-21T18:54:00;97503.13;;;7.64;100.00
23616;BME280;11985;49.404;7.734;2023-11-21T18:59:02;97509.28;;;7.56;100.00
23616;BME280;11985;49.404;7.734;2023-11-21T19:04:06;97508.34;;;7.49;100.00
23616;BME280;11985;49.404;7.734;2023-11-21T19:09:08;97516.50;;;7.39;100.00
23616;BME280;11985;49.404;7.734;2023-11-21T19:14:12;97523.97;;;7.43;100.00
23616;BME280;11985;49.404;7.734;2023-11-21T19:19:15;97522.91;;;7.52;100.00
23616;BME280;11985;49.404;7.734;2023-11-21T19:24:17;97536.13;;;7.58;100.00
23616;BME280;11985;49.404;7.734;2023-11-21T19:29:19;97541.44;;;7.50;100.00
23616;BME280;11985;49.404;7.734;2023-11-21T19:34:22;97554.19;;;7.38;100.00
23616;BME280;11985;49.404;7.734;2023-11-21T19:39:24;97559.91;;;7.19;100.00
23616;BME280;11985;49.404;7.734;2023-11-21T19:44:25;97560.63;;;7.13;100.00
23616;BME280;11985;49.404;7.734;2023-11-21T19:49:29;97558.47;;;7.17;100.00
23616;BME280;11985;49.404;7.734;2023-11-21T19:54:33;97566.59;;;7.22;100.00
23616;BME280;11985;49.404;7.734;2023-11-21T19:59:35;97576.38;;;7.28;100.00
23616;BME280;11985;49.404;7.734;2023-11-21T20:04:41;97586.81;;;7.13;100.00
23616;BME280;11985;49.404;7.734;2023-11-21T20:09:43;97583.19;;;7.14;100.00
23616;BME280;11985;49.404;7.734;2023-11-21T20:14:44;97602.53;;;7.13;100.00
23616;BME280;11985;49.404;7.734;2023-11-21T20:19:48;97603.22;;;7.07;100.00
23616;BME280;11985;49.404;7.734;2023-11-21T20:24:49;97602.63;;;7.20;100.00
23616;BME280;11985;49.404;7.734;2023-11-21T20:29:51;97610.53;;;7.34;100.00
23616;BME280;11985;49.404;7.734;2023-11-21T20:34:54;97614.25;;;7.40;100.00
23616;BME280;11985;49.404;7.734;2023-11-21T20:39:55;97609.59;;;7.50;100.00
23616;BME280;11985;49.404;7.734;2023-11-21T20:44:57;97616.91;;;7.55;100.00
23616;BME280;11985;49.404;7.734;2023-11-21T20:50:00;97612.94;;;7.44;100.00
23616;BME280;11985;49.404;7.734;2023-11-21T20:55:03;97605.59;;;7.39;100.00
23616;BME280;11985;49.404;7.734;2023-11-21T21:00:06;97605.31;;;7.34;100.00
23616;BME280;11985;49.404;7.734;2023-11-21T21:05:12;97610.69;;;7.18;100.00
23616;BME280;11985;49.404;7.734;2023-11-21T21:10:16;97623.81;;;7.10;100.00
23616;BME280;11985;49.404;7.734;2023-11-21T21:15:18;97625.47;;;7.11;100.00
23616;BME280;11985;49.404;7.734;2023-11-21T21:20:21;97627.44;;;7.09;100.00
23616;BME280;11985;49.404;7.734;2023-11-21T21:25:23;97625.06;;;7.22;100.00
23616;BME280;11985;49.404;7.734;2023-11-21T21:30:25;97633.41;;;7.40;100.00
23616;BME280;11985;49.404;7.734;2023-11-21T21:35:29;97639.16;;;7.59;100.00
23616;BME280;11985;49.404;7.734;2023-11-21T21:40:31;97634.56;;;7.61;100.00
23616;BME280;11985;49.404;7.734;2023-11-21T21:45:33;97640.78;;;7.60;100.00
23616;BME280;11985;49.404;7.734;2023-11-21T21:50:37;97635.00;;;7.50;100.00
23616;BME280;11985;49.404;7.734;2023-11-21T21:55:39;97635.47;;;7.30;100.00
23616;BME280;11985;49.404;7.734;2023-11-21T22:00:41;97641.22;;;7.26;100.00
23616;BME280;11985;49.404;7.734;2023-11-21T22:05:44;97663.50;;;7.22;100.00
23616;BME280;11985;49.404;7.734;2023-11-21T22:10:45;97672.06;;;6.61;100.00
23616;BME280;11985;49.404;7.734;2023-11-21T22:15:47;97690.34;;;6.14;100.00
23616;BME280;11985;49.404;7.734;2023-11-21T22:20:51;97705.06;;;5.82;100.00
23616;BME280;11985;49.404;7.734;2023-11-21T22:25:52;97708.84;;;5.64;100.00
23616;BME280;11985;49.404;7.734;2023-11-21T22:30:54;97712.91;;;5.42;100.00
23616;BME280;11985;49.404;7.734;2023-11-21T22:35:57;97722.03;;;5.21;100.00
23616;BME280;11985;49.404;7.734;2023-11-21T22:40:59;97743.84;;;5.04;100.00
23616;BME280;11985;49.404;7.734;2023-11-21T22:46:01;97750.03;;;4.95;100.00
23616;BME280;11985;49.404;7.734;2023-11-21T22:51:04;97754.84;;;4.73;100.00
23616;BME280;11985;49.404;7.734;2023-11-21T22:56:06;97757.06;;;4.60;100.00
23616;BME280;11985;49.404;7.734;2023-11-21T23:01:08;97764.78;;;4.44;100.00
23616;BME280;11985;49.404;7.734;2023-11-21T23:06:16;97786.97;;;4.40;100.00
23616;BME280;11985;49.404;7.734;2023-11-21T23:11:18;97796.75;;;4.20;100.00
23616;BME280;11985;49.404;7.734;2023-11-21T23:16:21;97806.66;;;4.16;100.00
23616;BME280;11985;49.404;7.734;2023-11-21T23:21:24;97812.84;;;4.15;100.00
23616;BME280;11985;49.404;7.734;2023-11-21T23:26:29;97825.69;;;4.09;100.00
23616;BME280;11985;49.404;7.734;2023-11-21T23:31:30;97826.56;;;4.00;100.00
23616;BME280;11985;49.404;7.734;2023-11-21T23:36:33;97825.72;;;3.91;100.00
23616;BME280;11985;49.404;7.734;2023-11-21T23:41:35;97834.13;;;3.85;100.00
23616;BME280;11985;49.404;7.734;2023-11-21T23:46:36;97831.97;;;3.80;100.00
23616;BME280;11985;49.404;7.734;2023-11-21T23:51:39;97828.16;;;3.75;100.00
23616;BME280;11985;49.404;7.734;2023-11-21T23:56:41;97833.66;;;3.71;100.00
